Warren, MO

3:21 PM CDT on September 17, 2014 (GMT -0500)
Camdenton | Change Station
CLOSE
Current Station
Airport
Location: Camdenton,
Elevation: 1063 ft
Nearby Weather Stations

Elev 1063 ft 37.97 °N, 92.69 °W | Updated 26 minutes ago

Overcast
Overcast
72 °F
Feels Like 72 °F
N
6
Wind Variable Wind from SSW

Today
High -- | Low -- °F
--% Chance of Precip.
Yesterday
High -- | Low -- °F
Precip. -- in
6:54 AM 7:15 PM
Waning Crescent, 33% visible
Pressure 29.93 in
Visibility 10.0 miles
Clouds Overcast 4400 ft
Dew Point 64 °F
Humidity 78%
Rainfall 0.88 in
Snow Depth Not available.
UV 2 out of 12
Pollen 6.60 out of 12
Air Quality Not available.
Flu Activity Not available.
METAR KH21 171955Z AUTO 20005KT 10SM OVC044 22/18 A2993 RMK AO2 LTG DSNT SW

More Conditions Fewer Conditions

Pressure 29.93 in
Visibility 10.0 miles
Clouds Overcast 4400 ft
Dew Point 64 °F
Humidity 78%
Rainfall 0.88 in
Snow Depth Not available.
UV 2 out of 12
Pollen 6.60 out of 12
Air Quality Not available.
Flu Activity Not available.
METAR KH21 171955Z AUTO 20005KT 10SM OVC044 22/18 A2993 RMK AO2 LTG DSNT SW

More Conditions Fewer Conditions

10-Day Weather Forecast

Almanac

Astronomy

Sep. 17, 2014 Rise Set
Actual Time 6:54 AM CDT 7:15 PM CDT
Civil Twilight 6:27 AM CDT 7:41 PM CDT
Nautical Twilight 5:56 AM CDT 8:12 PM CDT
Astronomical Twilight 5:25 AM CDT 8:44 PM CDT
Moon 12:58 AM CDT 3:21 PM CDT
Length of Visible Light 13h 13m
Length of Day
12h 21m
Tomorrow will be 2m 25s shorter.
Waning Crescent, 33% of the Moon is Illuminated
Today
Waning Crescent
Sep 24
New
Oct 1
First Quarter
Oct 8
Full
Oct 15
Last Quarter

Today's Extremes

State Highs State Lows

Community

WunderPhotos

Upload Photos

1,754,157 photos uploaded!

Nearby

Snow Depth

Station Depth Elevation
No new snow has been reported.

Earthquake Activity

City Distance Mag. Time & Date
No recent earthquake activity has been reported nearby.
Minimum magnitude displayed is 2.5.

Coastal Water Temperatures

Place Temperature
No Stations Reporting

Nearby Weather Stations